createdAt,value
2019-01-16T00:02:52.204Z,99155.67
2019-01-16T00:06:01.789Z,99158.39
2019-01-16T00:09:25.707Z,99147.73
2019-01-16T00:12:46.483Z,99166.29
2019-01-16T00:15:58.945Z,99149.39
2019-01-16T00:19:02.774Z,99176.41
2019-01-16T00:22:23.079Z,99162.76
2019-01-16T00:25:26.905Z,99180.50
2019-01-16T00:28:30.665Z,99175.05
2019-01-16T00:31:34.427Z,99196.33
2019-01-16T00:34:43.718Z,99186.20
2019-01-16T00:38:04.194Z,99206.94
2019-01-16T00:41:07.933Z,99215.98
2019-01-16T00:44:14.825Z,99206.69
2019-01-16T00:47:24.555Z,99207.80
2019-01-16T00:50:31.404Z,99209.72
2019-01-16T00:53:52.011Z,99203.72
2019-01-16T00:57:01.621Z,99235.38
2019-01-16T01:00:11.710Z,99240.84
2019-01-16T01:03:18.310Z,99238.40
2019-01-16T01:06:22.045Z,99225.00
2019-01-16T01:09:28.980Z,99240.28
2019-01-16T01:12:38.878Z,99240.28
2019-01-16T01:15:42.784Z,99253.67
2019-01-16T01:18:58.607Z,99253.13
2019-01-16T01:22:11.220Z,99257.48
2019-01-16T01:25:31.553Z,99262.14
2019-01-16T01:28:47.714Z,99251.25
2019-01-16T01:31:51.509Z,99279.93
2019-01-16T01:35:07.704Z,99271.48
2019-01-16T01:38:28.166Z,99275.02
2019-01-16T01:41:34.959Z,99271.48
2019-01-16T01:44:44.720Z,99267.12
2019-01-16T01:47:57.386Z,99272.84
2019-01-16T01:51:16.617Z,99293.06
2019-01-16T01:54:38.813Z,99290.33
2019-01-16T01:57:42.559Z,99282.13
2019-01-16T02:01:03.343Z,99269.30
2019-01-16T02:04:07.114Z,99302.31
2019-01-16T02:07:29.060Z,99275.86
2019-01-16T02:10:41.876Z,99300.69
2019-01-16T02:13:51.550Z,99295.51
2019-01-16T02:16:58.152Z,99289.48
2019-01-16T02:20:01.948Z,99293.58
2019-01-16T02:23:24.233Z,99308.58
2019-01-16T02:26:34.160Z,99302.58
2019-01-16T02:29:37.856Z,99297.95
2019-01-16T02:32:50.640Z,99306.14
2019-01-16T02:36:11.070Z,99306.41
2019-01-16T02:39:30.118Z,99303.39
2019-01-16T02:42:33.921Z,99301.47
2019-01-16T02:45:46.794Z,99313.19
2019-01-16T02:48:56.087Z,99281.02
2019-01-16T02:52:08.274Z,99296.02
2019-01-16T02:55:28.390Z,99296.84
2019-01-16T02:58:32.193Z,99304.22
2019-01-16T03:01:45.309Z,99287.83
2019-01-16T03:04:51.903Z,99293.56
2019-01-16T03:07:55.630Z,99298.22
2019-01-16T03:11:08.428Z,99280.75
2019-01-16T03:14:14.948Z,99284.02
2019-01-16T03:17:21.790Z,99284.02
2019-01-16T03:20:34.332Z,99289.48
2019-01-16T03:23:41.080Z,99298.77
2019-01-16T03:27:01.706Z,99281.58
2019-01-16T03:30:27.354Z,99291.69
2019-01-16T03:33:31.226Z,99284.05
2019-01-16T03:36:46.761Z,99299.58
2019-01-16T03:39:50.538Z,99273.41
2019-01-16T03:42:57.258Z,99302.31
2019-01-16T03:46:01.081Z,99295.23
2019-01-16T03:49:13.872Z,99282.67
2019-01-16T03:52:32.198Z,99293.59
2019-01-16T03:55:39.219Z,99294.15
2019-01-16T03:58:52.086Z,99302.59
2019-01-16T04:02:12.319Z,99306.98
2019-01-16T04:05:16.104Z,99311.61
2019-01-16T04:08:19.818Z,99307.78
2019-01-16T04:11:32.909Z,99297.96
2019-01-16T04:14:36.783Z,99306.16
2019-01-16T04:17:40.637Z,99328.55
2019-01-16T04:20:53.186Z,99320.89
2019-01-16T04:23:57.075Z,99322.81
2019-01-16T04:27:00.824Z,99335.63
2019-01-16T04:30:25.924Z,99326.06
2019-01-16T04:33:47.568Z,99322.78
2019-01-16T04:36:51.378Z,99341.94
2019-01-16T04:39:58.079Z,99341.92
2019-01-16T04:43:10.787Z,99339.46
2019-01-16T04:46:31.354Z,99345.19
2019-01-16T04:49:38.237Z,99350.91
2019-01-16T04:52:44.738Z,99353.94
2019-01-16T04:55:49.050Z,99353.38
2019-01-16T04:58:52.835Z,99351.20
2019-01-16T05:02:13.307Z,99359.66
2019-01-16T05:05:26.336Z,99350.66
2019-01-16T05:08:33.185Z,99339.47
2019-01-16T05:11:55.191Z,99353.94
2019-01-16T05:15:05.037Z,99358.01
2019-01-16T05:18:08.713Z,99354.47
2019-01-16T05:21:29.135Z,99355.28
2019-01-16T05:24:39.029Z,99367.31
2019-01-16T05:27:42.819Z,99373.30
2019-01-16T05:30:46.602Z,99370.56
2019-01-16T05:34:06.942Z,99376.29
2019-01-16T05:37:29.151Z,99376.58
2019-01-16T05:40:42.072Z,99372.78
2019-01-16T05:43:48.863Z,99385.33
2019-01-16T05:46:52.642Z,99381.79
2019-01-16T05:49:56.531Z,99359.12
2019-01-16T05:53:00.350Z,99378.50
2019-01-16T05:56:16.889Z,99383.70
2019-01-16T05:59:20.765Z,99388.33
2019-01-16T06:02:36.471Z,99394.09
2019-01-16T06:05:49.253Z,99402.28
2019-01-16T06:08:56.322Z,99404.17
2019-01-16T06:12:16.875Z,99405.02
2019-01-16T06:15:32.902Z,99410.75
2019-01-16T06:18:36.631Z,99404.17
2019-01-16T06:21:49.331Z,99408.27
2019-01-16T06:25:01.953Z,99420.83
2019-01-16T06:28:11.815Z,99429.59
2019-01-16T06:31:32.441Z,99426.59
2019-01-16T06:34:37.474Z,99426.04
2019-01-16T06:37:59.497Z,99428.77
2019-01-16T06:41:03.239Z,99428.25
2019-01-16T06:44:07.046Z,99438.63
2019-01-16T06:47:27.277Z,99433.98
2019-01-16T06:50:34.427Z,99452.01
2019-01-16T06:53:40.982Z,99444.36
2019-01-16T06:57:02.010Z,99455.00
2019-01-16T07:00:17.417Z,99451.19
2019-01-16T07:03:37.759Z,99456.92
2019-01-16T07:06:58.660Z,99467.05
2019-01-16T07:10:02.444Z,99460.47
2019-01-16T07:13:23.045Z,99476.06
2019-01-16T07:16:43.111Z,99468.94
2019-01-16T07:19:55.588Z,99476.33
2019-01-16T07:23:05.196Z,99494.91
2019-01-16T07:26:08.975Z,99492.47
2019-01-16T07:29:15.799Z,99501.48
2019-01-16T07:32:28.517Z,99500.38
2019-01-16T07:35:35.358Z,99500.09
2019-01-16T07:38:39.181Z,99521.16
2019-01-16T07:41:42.919Z,99512.66
2019-01-16T07:44:58.950Z,99523.34
2019-01-16T07:48:02.667Z,99533.73
2019-01-16T07:51:12.408Z,99528.52
2019-01-16T07:54:16.199Z,99527.16
2019-01-16T07:57:35.839Z,99541.64
2019-01-16T08:00:45.403Z,99538.36
2019-01-16T08:04:01.517Z,99552.59
2019-01-16T08:07:05.368Z,99535.07
2019-01-16T08:10:23.777Z,99546.30
2019-01-16T08:13:27.488Z,99546.56
2019-01-16T08:16:31.230Z,99539.72
2019-01-16T08:19:37.967Z,99546.53
2019-01-16T08:22:44.615Z,99550.63
2019-01-16T08:25:50.940Z,99545.41
2019-01-16T08:28:54.725Z,99560.18
2019-01-16T08:32:09.072Z,99550.59
2019-01-16T08:35:19.361Z,99551.42
2019-01-16T08:38:40.097Z,99554.16
2019-01-16T08:41:43.868Z,99568.95
2019-01-16T08:44:59.795Z,99566.77
2019-01-16T08:48:06.319Z,99568.36
2019-01-16T08:51:10.439Z,99570.55
2019-01-16T08:54:23.195Z,99570.54
2019-01-16T08:57:43.701Z,99583.95
2019-01-16T09:00:50.235Z,99579.03
2019-01-16T09:03:55.364Z,99576.58
2019-01-16T09:07:05.071Z,99592.71
2019-01-16T09:10:11.531Z,99592.13
2019-01-16T09:13:16.474Z,99587.72
2019-01-16T09:16:35.487Z,99585.20
2019-01-16T09:19:39.247Z,99590.94
2019-01-16T09:22:45.992Z,99596.19
2019-01-16T09:25:58.627Z,99590.93
2019-01-16T09:29:19.059Z,99596.63
2019-01-16T09:32:25.869Z,99596.90
2019-01-16T09:35:38.957Z,99589.49
2019-01-16T09:38:45.688Z,99596.37
2019-01-16T09:41:49.558Z,99592.30
2019-01-16T09:45:10.112Z,99586.81
2019-01-16T09:48:16.924Z,99579.93
2019-01-16T09:51:36.153Z,99569.77
2019-01-16T09:54:42.634Z,99572.69
2019-01-16T09:57:59.018Z,99573.11
2019-01-16T10:01:02.905Z,99571.38
2019-01-16T10:04:21.700Z,99568.80
2019-01-16T10:07:42.409Z,99567.72
2019-01-16T10:10:49.322Z,99581.52
2019-01-16T10:13:59.161Z,99572.63
2019-01-16T10:17:06.033Z,99573.19
2019-01-16T10:20:19.938Z,99573.77
2019-01-16T10:23:29.521Z,99575.38
2019-01-16T10:26:33.350Z,99575.94
2019-01-16T10:29:37.059Z,99561.66
2019-01-16T10:32:53.708Z,99552.52
2019-01-16T10:36:10.106Z,99553.48
2019-01-16T10:39:30.474Z,99550.33
2019-01-16T10:42:37.507Z,99552.45
2019-01-16T10:45:44.244Z,99551.59
2019-01-16T10:48:49.851Z,99555.09
2019-01-16T10:51:59.883Z,99552.35
2019-01-16T10:55:09.742Z,99549.61
2019-01-16T10:58:30.355Z,99545.83
2019-01-16T11:01:40.401Z,99559.40
2019-01-16T11:04:50.612Z,99552.88
2019-01-16T11:07:54.481Z,99548.16
2019-01-16T11:11:16.151Z,99541.74
2019-01-16T11:14:20.206Z,99544.84
2019-01-16T11:17:26.851Z,99532.36
2019-01-16T11:20:45.991Z,99534.47
2019-01-16T11:24:01.746Z,99536.39
2019-01-16T11:27:21.195Z,99528.80
2019-01-16T11:30:41.822Z,99525.48
2019-01-16T11:34:01.867Z,99527.14
2019-01-16T11:37:24.038Z,99516.30
2019-01-16T11:40:30.782Z,99517.77
2019-01-16T11:43:37.114Z,99509.91
2019-01-16T11:46:41.152Z,99513.41
2019-01-16T11:49:45.010Z,99504.83
2019-01-16T11:52:51.526Z,99504.81
2019-01-16T11:56:10.365Z,99508.32
2019-01-16T11:59:14.155Z,99513.17
2019-01-16T12:02:38.678Z,99512.27
2019-01-16T12:05:44.552Z,99513.23
2019-01-16T12:09:03.442Z,99514.08
2019-01-16T12:12:25.235Z,99515.70
2019-01-16T12:15:31.919Z,99514.70
2019-01-16T12:18:35.718Z,99504.11
2019-01-16T12:21:39.550Z,99509.23
2019-01-16T12:24:46.051Z,99507.98
2019-01-16T12:27:53.006Z,99507.39
2019-01-16T12:30:59.343Z,99506.31
2019-01-16T12:34:19.672Z,99506.31
2019-01-16T12:37:38.885Z,99500.02
2019-01-16T12:41:00.999Z,99500.82
2019-01-16T12:44:20.872Z,99500.27
2019-01-16T12:47:33.524Z,99502.73
2019-01-16T12:50:37.522Z,99498.84
2019-01-16T12:53:47.287Z,99504.34
2019-01-16T12:57:07.951Z,99510.87
2019-01-16T13:00:15.437Z,99507.03
2019-01-16T13:03:31.202Z,99502.17
2019-01-16T13:06:41.957Z,99498.59
2019-01-16T13:10:03.605Z,99499.98
2019-01-16T13:13:07.357Z,99495.84
2019-01-16T13:16:26.319Z,99492.77
2019-01-16T13:19:35.086Z,99495.36
2019-01-16T13:22:46.008Z,99489.74
2019-01-16T13:25:51.011Z,99493.35
2019-01-16T13:28:54.849Z,99489.22
2019-01-16T13:32:15.337Z,99486.49
2019-01-16T13:35:19.229Z,99488.12
2019-01-16T13:38:32.109Z,99485.14
2019-01-16T13:41:38.664Z,99484.60
2019-01-16T13:44:48.196Z,99484.09
2019-01-16T13:47:54.717Z,99479.27
2019-01-16T13:51:10.632Z,99474.87
2019-01-16T13:54:29.313Z,99474.59
2019-01-16T13:57:33.200Z,99465.86
2019-01-16T14:00:36.941Z,99466.24
2019-01-16T14:03:49.601Z,99470.34
2019-01-16T14:06:53.367Z,99461.08
2019-01-16T14:10:06.019Z,99462.50
2019-01-16T14:13:09.918Z,99460.35
2019-01-16T14:16:29.151Z,99457.91
2019-01-16T14:19:35.948Z,99458.52
2019-01-16T14:22:48.996Z,99456.41
2019-01-16T14:26:09.580Z,99452.33
2019-01-16T14:29:18.971Z,99444.96
2019-01-16T14:32:25.531Z,99452.94
2019-01-16T14:35:45.571Z,99457.09
2019-01-16T14:39:06.168Z,99455.73
2019-01-16T14:42:22.232Z,99463.74
2019-01-16T14:45:42.535Z,99460.20
2019-01-16T14:48:49.355Z,99457.22
2019-01-16T14:52:05.147Z,99449.58
2019-01-16T14:55:19.996Z,99451.20
2019-01-16T14:58:29.806Z,99448.48
2019-01-16T15:01:33.622Z,99459.17
2019-01-16T15:04:46.366Z,99452.34
2019-01-16T15:07:56.011Z,99448.23
2019-01-16T15:11:12.752Z,99449.65
2019-01-16T15:14:33.602Z,99450.74
2019-01-16T15:17:43.618Z,99452.17
2019-01-16T15:21:04.039Z,99455.22
2019-01-16T15:24:09.143Z,99455.22
2019-01-16T15:27:14.461Z,99459.87
2019-01-16T15:30:18.557Z,99447.82
2019-01-16T15:33:22.360Z,99459.03
2019-01-16T15:36:42.421Z,99457.40
2019-01-16T15:39:46.137Z,99456.59
2019-01-16T15:42:55.911Z,99453.31
2019-01-16T15:45:59.684Z,99445.40
2019-01-16T15:49:09.574Z,99454.72
2019-01-16T15:52:16.160Z,99449.25
2019-01-16T15:55:33.474Z,99444.89
2019-01-16T15:58:37.160Z,99443.52
2019-01-16T16:01:46.921Z,99445.44
2019-01-16T16:04:56.222Z,99444.33
2019-01-16T16:08:06.632Z,99447.62
2019-01-16T16:11:10.721Z,99441.89
2019-01-16T16:14:17.617Z,99435.61
2019-01-16T16:17:38.562Z,99447.36
2019-01-16T16:20:59.165Z,99450.09
2019-01-16T16:24:02.868Z,99446.53
2019-01-16T16:27:09.747Z,99444.91
2019-01-16T16:30:14.549Z,99436.97
2019-01-16T16:33:21.556Z,99433.42
2019-01-16T16:36:42.348Z,99429.87
2019-01-16T16:39:46.191Z,99424.15
2019-01-16T16:43:09.052Z,99423.30
2019-01-16T16:46:15.592Z,99423.59
2019-01-16T16:49:22.536Z,99422.48
2019-01-16T16:52:40.020Z,99422.78
2019-01-16T16:55:53.417Z,99423.84
2019-01-16T16:59:13.691Z,99427.95
2019-01-16T17:02:28.103Z,99426.31
2019-01-16T17:05:31.990Z,99424.69
2019-01-16T17:08:48.122Z,99424.42
2019-01-16T17:11:58.472Z,99425.52
2019-01-16T17:15:11.621Z,99412.10
2019-01-16T17:18:25.792Z,99406.37
2019-01-16T17:21:29.726Z,99408.82
2019-01-16T17:24:33.769Z,99410.21
2019-01-16T17:27:37.599Z,99403.09
2019-01-16T17:30:57.884Z,99398.99
2019-01-16T17:34:16.748Z,99400.63
2019-01-16T17:37:39.092Z,99398.99
2019-01-16T17:40:49.186Z,99387.80
2019-01-16T17:44:02.027Z,99379.34
2019-01-16T17:47:23.200Z,99377.41
2019-01-16T17:50:26.920Z,99367.85
2019-01-16T17:53:33.657Z,99371.42
2019-01-16T17:56:57.866Z,99371.14
2019-01-16T18:00:21.982Z,99368.96
2019-01-16T18:03:27.798Z,99363.23
2019-01-16T18:06:42.322Z,99355.03
2019-01-16T18:09:55.876Z,99368.67
2019-01-16T18:13:02.396Z,99363.50
2019-01-16T18:16:07.017Z,99365.67
2019-01-16T18:19:14.256Z,99364.30
2019-01-16T18:22:18.143Z,99359.66
2019-01-16T18:25:22.880Z,99356.41
2019-01-16T18:28:28.995Z,99360.20
2019-01-16T18:31:42.952Z,99354.76
2019-01-16T18:35:06.391Z,99346.55
2019-01-16T18:38:13.230Z,99342.47
2019-01-16T18:41:29.281Z,99342.44
2019-01-16T18:44:39.120Z,99345.45
2019-01-16T18:47:42.905Z,99339.42
2019-01-16T18:50:55.236Z,99335.31
2019-01-16T18:54:01.831Z,99333.67
2019-01-16T18:57:24.521Z,99330.66
2019-01-16T19:00:44.179Z,99328.45
2019-01-16T19:04:00.583Z,99329.80
2019-01-16T19:07:10.413Z,99319.97
2019-01-16T19:10:30.815Z,99317.55
2019-01-16T19:13:34.620Z,99315.87
2019-01-16T19:16:38.434Z,99315.35
2019-01-16T19:19:48.514Z,99313.69
2019-01-16T19:23:07.323Z,99311.23
2019-01-16T19:26:11.490Z,99305.44
2019-01-16T19:29:18.052Z,99301.28
2019-01-16T19:32:35.462Z,99298.00
2019-01-16T19:35:43.356Z,99299.30
2019-01-16T19:38:49.186Z,99294.36
2019-01-16T19:41:55.567Z,99289.64
2019-01-16T19:45:06.201Z,99281.47
2019-01-16T19:48:31.429Z,99280.60
2019-01-16T19:51:38.112Z,99272.43
2019-01-16T19:55:01.577Z,99269.14
2019-01-16T19:58:22.932Z,99273.72
2019-01-16T20:01:29.626Z,99269.31
2019-01-16T20:04:37.324Z,99265.99
2019-01-16T20:07:58.094Z,99264.90
2019-01-16T20:11:03.044Z,99256.96
2019-01-16T20:14:14.189Z,99257.78
2019-01-16T20:17:26.268Z,99244.41
2019-01-16T20:20:30.625Z,99241.94
2019-01-16T20:23:35.765Z,99237.81
2019-01-16T20:26:48.436Z,99243.83
2019-01-16T20:30:00.939Z,99242.51
2019-01-16T20:33:09.191Z,99241.06
2019-01-16T20:36:32.855Z,99239.39
2019-01-16T20:39:39.582Z,99229.08
2019-01-16T20:42:43.440Z,99228.20
2019-01-16T20:46:06.987Z,99225.50
2019-01-16T20:49:18.817Z,99213.52
2019-01-16T20:52:24.430Z,99194.66
2019-01-16T20:55:47.483Z,99190.84
2019-01-16T20:58:51.310Z,99199.83
2019-01-16T21:02:04.963Z,99186.20
2019-01-16T21:05:12.360Z,99196.54
2019-01-16T21:08:33.026Z,99184.56
2019-01-16T21:11:37.281Z,99186.20
2019-01-16T21:14:52.181Z,99182.39
2019-01-16T21:17:56.995Z,99189.76
2019-01-16T21:21:14.432Z,99186.47
2019-01-16T21:24:33.601Z,99182.39
2019-01-16T21:27:43.401Z,99177.20
2019-01-16T21:31:01.911Z,99170.63
2019-01-16T21:34:05.825Z,99172.27
2019-01-16T21:37:27.751Z,99168.69
2019-01-16T21:40:49.779Z,99158.02
2019-01-16T21:44:07.398Z,99147.11
2019-01-16T21:47:20.124Z,99136.41
2019-01-16T21:50:26.861Z,99132.58
2019-01-16T21:53:33.693Z,99133.98
2019-01-16T21:56:37.558Z,99139.17
2019-01-16T21:59:58.116Z,99133.42
2019-01-16T22:03:17.227Z,99124.70
2019-01-16T22:06:36.135Z,99118.92
2019-01-16T22:09:51.958Z,99115.30
2019-01-16T22:12:57.349Z,99104.36
2019-01-16T22:16:04.295Z,99095.94
2019-01-16T22:19:17.472Z,99083.73
2019-01-16T22:22:21.430Z,99080.20
2019-01-16T22:25:25.227Z,99067.66
2019-01-16T22:28:41.396Z,99068.16
2019-01-16T22:31:48.591Z,99070.03
2019-01-16T22:35:09.374Z,99076.20
2019-01-16T22:38:19.092Z,99072.10
2019-01-16T22:41:27.165Z,99056.79
2019-01-16T22:44:39.641Z,99046.50
2019-01-16T22:47:43.774Z,99049.81
2019-01-16T22:51:04.118Z,99040.03
2019-01-16T22:54:25.869Z,99020.45
2019-01-16T22:57:35.590Z,99023.98
2019-01-16T23:00:42.035Z,99022.83
2019-01-16T23:04:14.652Z,99013.52
2019-01-16T23:07:18.403Z,99011.42
2019-01-16T23:10:38.449Z,98995.48
2019-01-16T23:13:42.167Z,98981.50
2019-01-16T23:17:02.695Z,98963.95
2019-01-16T23:20:08.949Z,98978.21
2019-01-16T23:23:12.788Z,98955.69
2019-01-16T23:26:19.345Z,98965.53
2019-01-16T23:29:26.113Z,98977.00
2019-01-16T23:32:38.800Z,98975.66
2019-01-16T23:35:57.620Z,98967.80
2019-01-16T23:39:03.883Z,98963.74
2019-01-16T23:42:19.989Z,98953.98
2019-01-16T23:45:23.698Z,98954.86
2019-01-16T23:48:27.548Z,98959.22
2019-01-16T23:51:37.666Z,98951.60
2019-01-16T23:54:50.461Z,98957.60
2019-01-16T23:57:57.037Z,98955.99
